South Cle Elum, Washington
Current Conditions -  °F | °C
As of 12:53 AM on Saturday 22 Nov 2014 (Local Time) from KELN Reporting Station
Haze Haze  
Wind Chill: 30°   Ceiling: 100
Heat Index: 30°   Visibility: 0.75mi
Dew Point: 28°   Wind: 0mph
Humidity: 92%   Direction: NA
Pressure: 29.47"   Gusts: NA
Location:  47.19°N, 120.95°W
Report Text: KELN 220853Z AUTO 00000KT 3/4SM BR VV001 M01/M02 A2947 RMK AO2 SLP993 I1001 I3003 T10111022 53017
Loading
Personal Weather Stations






























Interactive Weather Map New forecast layout! Learn more

10-Day Weather Forecast

Advertisements
Track Severe Weather on mobile